Time;durP1;ratioP1;P1;durP2;ratioP2;P2;SDS_P1;SDS_P2;PMS_P1;PMS_P2;Temp;Humidity;BMP_temperature;BMP_pressure;BME280_temperature;BME280_humidity;BME280_pressure;Samples;Min_cycle;Max_cycle;Signal;HPM_P1;HPM_P2
2022/03/01 00:02:11;;;;;;;;;;;2.00;99.90;;;;;;5077732;28;20300;-84
2022/03/01 00:04:37;;;;;;;;;;;2.00;99.90;;;;;;5095680;28;19965;-84
2022/03/01 00:07:03;;;;;;;;;;;2.00;99.90;;;;;;5097993;28;20346;-84
2022/03/01 00:09:29;;;;;;;;;;;2.50;99.90;;;;;;5081225;28;19920;-84
2022/03/01 00:11:55;;;;;;;;;;;1.90;99.90;;;;;;5081804;28;20284;-84
2022/03/01 00:14:20;;;;;;;;;;;1.90;99.90;;;;;;5081426;28;19926;-84
2022/03/01 00:16:46;;;;;;;;;;;1.90;99.90;;;;;;5081072;28;20380;-84
2022/03/01 00:19:11;;;;;;;;;;;1.90;99.90;;;;;;5081265;28;19998;-84
2022/03/01 00:21:37;;;;;;;;;;;1.90;99.90;;;;;;5079976;28;19920;-84
2022/03/01 00:24:03;;;;;;;;;;;1.90;99.90;;;;;;5069134;28;19994;-84
2022/03/01 00:26:28;;;;;;;;;;;1.90;99.90;;;;;;5081019;28;19924;-84
2022/03/01 00:28:54;;;;;;;;;;;1.80;99.90;;;;;;5081471;28;19926;-84
2022/03/01 00:31:19;;;;;;;;;;;1.80;99.90;;;;;;5076461;28;19965;-85
2022/03/01 00:33:46;;;;;;;;;;;1.80;99.90;;;;;;5079898;28;19927;-84
2022/03/01 00:36:11;;;;;;;;;;;1.80;99.90;;;;;;5080518;28;19926;-84
2022/03/01 00:38:37;;;;;;;;;;;1.70;99.90;;;;;;5080845;28;19924;-84
2022/03/01 00:41:02;;;;;;;;;;;1.70;99.90;;;;;;5098053;28;19924;-84
2022/03/01 00:43:28;;;;;;;;;;;1.70;99.90;;;;;;5081142;28;19927;-84
2022/03/01 00:45:53;;;;;;;;;;;1.60;99.90;;;;;;5080648;28;20011;-84
2022/03/01 00:48:19;;;;;;;;;;;1.60;99.90;;;;;;5097404;28;19930;-84
2022/03/01 00:50:45;;;;;;;;;;;1.60;99.90;;;;;;5076069;28;19920;-84
2022/03/01 00:53:10;;;;;;;;;;;1.50;99.90;;;;;;5078782;28;19919;-84
2022/03/01 00:55:36;;;;;;;;;;;1.50;99.90;;;;;;5097851;28;19919;-84
2022/03/01 00:58:01;;;;;;;;;;;1.50;99.90;;;;;;5080083;28;19984;-84
2022/03/01 01:00:28;;;;;;;;;;;1.70;99.90;;;;;;5080646;28;19926;-84
2022/03/01 01:02:53;;;;;;;;;;;1.60;99.90;;;;;;5080370;28;20334;-84
2022/03/01 01:05:19;;;;;;;;;;;1.60;99.90;;;;;;5097260;28;19919;-83
2022/03/01 01:07:44;;;;;;;;;;;1.60;99.90;;;;;;5079873;28;19977;-84
2022/03/01 01:10:11;;;;;;;;;;;1.60;99.90;;;;;;5073504;28;20300;-84
2022/03/01 01:12:36;;;;;;;;;;;1.50;99.90;;;;;;5080243;28;19919;-84
2022/03/01 01:15:03;;;;;;;;;;;1.50;99.90;;;;;;5097166;28;19931;-84
2022/03/01 01:17:28;;;;;;;;;;;1.40;99.90;;;;;;5079954;28;20384;-84
2022/03/01 01:19:57;;;;;;;;;;;1.40;99.90;;;;;;5080343;28;19972;-84
2022/03/01 01:22:41;;;;;;;;;;;1.40;99.90;;;;;;5079972;28;20022;-84
2022/03/01 01:25:11;;;;;;;;;;;1.40;99.90;;;;;;5079831;28;19927;-84
2022/03/01 01:27:37;;;;;;;;;;;1.40;99.90;;;;;;5079493;28;19924;-84
2022/03/01 01:30:06;;;;;;;;;;;1.40;99.90;;;;;;5079631;28;19928;-84
2022/03/01 01:32:32;;;;;;;;;;;1.40;99.90;;;;;;5079630;28;19921;-84
2022/03/01 01:34:57;;;;;;;;;;;1.40;99.90;;;;;;5096922;28;19926;-84
2022/03/01 01:37:22;;;;;;;;;;;1.40;99.90;;;;;;5079625;28;19927;-84
2022/03/01 01:39:48;;;;;;;;;;;1.40;99.90;;;;;;5079573;28;19924;-84
2022/03/01 01:42:14;;;;;;;;;;;1.40;99.90;;;;;;5079584;28;19977;-84
2022/03/01 01:44:42;;;;;;;;;;;1.40;99.90;;;;;;5079485;28;20376;-84
2022/03/01 01:47:07;;;;;;;;;;;1.40;99.90;;;;;;5079313;28;19935;-84
2022/03/01 01:49:33;;;;;;;;;;;1.50;99.90;;;;;;5079407;28;19919;-84
2022/03/01 01:51:58;;;;;;;;;;;1.40;99.90;;;;;;5079343;28;19919;-84
2022/03/01 01:54:24;;;;;;;;;;;1.50;99.90;;;;;;5096578;28;19926;-84
2022/03/01 01:56:49;;;;;;;;;;;1.50;99.90;;;;;;5095799;28;19989;-84
2022/03/01 01:59:15;;;;;;;;;;;1.40;99.90;;;;;;5079019;28;19926;-84
2022/03/01 02:01:40;;;;;;;;;;;1.50;99.90;;;;;;5079224;28;19920;-84
2022/03/01 02:04:06;;;;;;;;;;;1.40;99.90;;;;;;5096069;28;20373;-84
2022/03/01 02:06:31;;;;;;;;;;;1.40;99.90;;;;;;5078873;28;20019;-84
2022/03/01 02:08:57;;;;;;;;;;;1.40;99.90;;;;;;5079094;28;19920;-84
2022/03/01 02:11:22;;;;;;;;;;;1.30;99.90;;;;;;5072860;28;20319;-84
2022/03/01 02:13:48;;;;;;;;;;;1.20;99.90;;;;;;5095947;28;20010;-84
2022/03/01 02:16:13;;;;;;;;;;;1.20;99.90;;;;;;5078914;28;20423;-84
2022/03/01 02:18:39;;;;;;;;;;;1.20;99.90;;;;;;5079110;28;19920;-84
2022/03/01 02:21:04;;;;;;;;;;;1.20;99.90;;;;;;5096151;28;19919;-84
2022/03/01 02:23:30;;;;;;;;;;;1.20;99.90;;;;;;5078990;28;19977;-84
2022/03/01 02:25:55;;;;;;;;;;;1.20;99.90;;;;;;5078904;28;19927;-84
2022/03/01 02:28:21;;;;;;;;;;;1.20;99.90;;;;;;5095575;28;19930;-84
2022/03/01 02:30:46;;;;;;;;;;;1.20;99.90;;;;;;5078650;28;19971;-84
2022/03/01 02:33:12;;;;;;;;;;;1.20;99.90;;;;;;5078852;28;19932;-84
2022/03/01 02:35:37;;;;;;;;;;;1.20;99.90;;;;;;5078848;28;19920;-84
2022/03/01 02:38:04;;;;;;;;;;;1.20;99.90;;;;;;5078471;28;19930;-85
2022/03/01 02:40:29;;;;;;;;;;;1.20;99.90;;;;;;5079193;28;20006;-84
2022/03/01 02:42:55;;;;;;;;;;;1.20;99.90;;;;;;5072152;28;19974;-84
2022/03/01 02:45:20;;;;;;;;;;;1.20;99.90;;;;;;5078493;28;19920;-84
2022/03/01 02:47:46;;;;;;;;;;;1.20;99.90;;;;;;5078237;28;19967;-84
2022/03/01 02:50:12;;;;;;;;;;;1.20;99.90;;;;;;5078743;28;19942;-84
2022/03/01 02:52:38;;;;;;;;;;;1.10;99.90;;;;;;5079008;28;19920;-84
2022/03/01 02:55:04;;;;;;;;;;;1.10;99.90;;;;;;5078991;28;19935;-84
2022/03/01 02:57:30;;;;;;;;;;;1.10;99.90;;;;;;5097562;28;19920;-84
2022/03/01 02:59:55;;;;;;;;;;;1.10;99.90;;;;;;5082243;28;20402;-84
2022/03/01 03:02:21;;;;;;;;;;;1.10;99.90;;;;;;5095453;28;19920;-84
2022/03/01 03:04:47;;;;;;;;;;;1.10;99.90;;;;;;5082918;28;19977;-84
2022/03/01 03:07:13;;;;;;;;;;;1.10;99.90;;;;;;5082603;28;19978;-84
2022/03/01 03:09:40;;;;;;;;;;;1.10;99.90;;;;;;5082611;28;19959;-84
2022/03/01 03:12:06;;;;;;;;;;;1.10;99.90;;;;;;5099801;28;20401;-84
2022/03/01 03:14:32;;;;;;;;;;;1.10;99.90;;;;;;5116242;28;19924;-84
2022/03/01 03:16:57;;;;;;;;;;;1.10;99.90;;;;;;5081914;28;19929;-84
2022/03/01 03:19:23;;;;;;;;;;;1.10;99.90;;;;;;5099292;28;20334;-84
2022/03/01 03:21:49;;;;;;;;;;;1.20;99.90;;;;;;5082396;28;19920;-84
2022/03/01 03:24:15;;;;;;;;;;;1.10;99.90;;;;;;5082509;28;20459;-84
2022/03/01 03:26:40;;;;;;;;;;;1.10;99.90;;;;;;5081917;28;20022;-84
2022/03/01 03:29:09;;;;;;;;;;;1.10;99.90;;;;;;5082133;28;19924;-84
2022/03/01 03:31:36;;;;;;;;;;;1.10;99.90;;;;;;5082201;28;19920;-84
2022/03/01 03:34:02;;;;;;;;;;;1.10;99.90;;;;;;5099031;28;19919;-84
2022/03/01 03:36:27;;;;;;;;;;;1.10;99.90;;;;;;5081644;28;19926;-84
2022/03/01 03:38:53;;;;;;;;;;;1.20;99.90;;;;;;5075323;28;20274;-84
2022/03/01 03:41:18;;;;;;;;;;;1.20;99.90;;;;;;5081862;28;20380;-84
2022/03/01 03:43:44;;;;;;;;;;;1.20;99.90;;;;;;5081919;28;19919;-84
2022/03/01 03:46:09;;;;;;;;;;;1.20;99.90;;;;;;5081435;28;19927;-84
2022/03/01 03:48:34;;;;;;;;;;;1.30;99.90;;;;;;5081906;28;19954;-84
2022/03/01 03:51:00;;;;;;;;;;;1.40;99.90;;;;;;5075118;28;19973;-84
2022/03/01 03:53:25;;;;;;;;;;;1.40;99.90;;;;;;5098663;28;19919;-84
2022/03/01 03:55:51;;;;;;;;;;;1.50;99.90;;;;;;5081642;28;19965;-84
2022/03/01 03:58:16;;;;;;;;;;;1.50;99.90;;;;;;5074398;28;20342;-84
2022/03/01 04:00:42;;;;;;;;;;;1.50;99.90;;;;;;5081542;28;19924;-84
2022/03/01 04:03:07;;;;;;;;;;;1.50;99.90;;;;;;5081777;28;20287;-84
2022/03/01 04:05:34;;;;;;;;;;;1.60;99.90;;;;;;5081751;28;19920;-84
2022/03/01 04:08:00;;;;;;;;;;;1.60;99.90;;;;;;5097925;28;19930;-84
2022/03/01 04:10:26;;;;;;;;;;;1.60;99.90;;;;;;5081428;28;19924;-84
2022/03/01 04:12:51;;;;;;;;;;;1.60;99.90;;;;;;5081742;28;20296;-84
2022/03/01 04:15:17;;;;;;;;;;;1.60;99.90;;;;;;5081140;28;19923;-84
2022/03/01 04:17:43;;;;;;;;;;;1.60;99.90;;;;;;5080683;28;19924;-84
2022/03/01 04:20:09;;;;;;;;;;;1.60;99.90;;;;;;5098166;28;19926;-84
2022/03/01 04:22:34;;;;;;;;;;;1.60;99.90;;;;;;5074873;28;20409;-84
2022/03/01 04:25:01;;;;;;;;;;;1.60;99.90;;;;;;5081308;28;19924;-84
2022/03/01 04:27:26;;;;;;;;;;;1.60;99.90;;;;;;5097893;28;19967;-84
2022/03/01 04:29:52;;;;;;;;;;;1.60;99.90;;;;;;5081072;28;19970;-84
2022/03/01 04:32:17;;;;;;;;;;;1.60;99.90;;;;;;5081308;28;20432;-84
2022/03/01 04:34:45;;;;;;;;;;;1.60;99.90;;;;;;5074487;28;21364;-84
2022/03/01 04:37:10;;;;;;;;;;;1.60;99.90;;;;;;5080475;28;20010;-84
2022/03/01 04:39:36;;;;;;;;;;;1.60;99.90;;;;;;5080851;28;19926;-84
2022/03/01 04:42:04;;;;;;;;;;;1.50;99.90;;;;;;5081260;28;19926;-84
2022/03/01 04:44:30;;;;;;;;;;;1.50;99.90;;;;;;5080922;28;19923;-84
2022/03/01 04:46:56;;;;;;;;;;;1.50;99.90;;;;;;5080249;28;20400;-84
2022/03/01 04:49:21;;;;;;;;;;;1.50;99.90;;;;;;5091062;28;20089;-84
2022/03/01 04:51:47;;;;;;;;;;;1.50;99.90;;;;;;5097604;28;19923;-84
2022/03/01 04:54:12;;;;;;;;;;;1.40;99.90;;;;;;5080863;28;19927;-84
2022/03/01 04:56:38;;;;;;;;;;;1.50;99.90;;;;;;5080538;28;19920;-84
2022/03/01 04:59:03;;;;;;;;;;;1.40;99.90;;;;;;5080686;28;20421;-84
2022/03/01 05:01:29;;;;;;;;;;;1.40;99.90;;;;;;5080716;28;19920;-85
2022/03/01 05:03:54;;;;;;;;;;;1.40;99.90;;;;;;5073123;28;19942;-84
2022/03/01 05:06:20;;;;;;;;;;;1.30;99.90;;;;;;5079211;28;19990;-84
2022/03/01 05:08:45;;;;;;;;;;;1.30;99.90;;;;;;5079517;28;19924;-84
2022/03/01 05:11:11;;;;;;;;;;;1.30;99.90;;;;;;5079444;28;20342;-84
2022/03/01 05:13:36;;;;;;;;;;;1.30;99.90;;;;;;5073415;28;19920;-84
2022/03/01 05:16:02;;;;;;;;;;;1.30;99.90;;;;;;5079541;28;20098;-85
2022/03/01 05:18:27;;;;;;;;;;;1.20;99.90;;;;;;5079383;28;19920;-85
2022/03/01 05:20:53;;;;;;;;;;;1.20;99.90;;;;;;5095686;28;19977;-84
2022/03/01 05:23:19;;;;;;;;;;;1.20;99.90;;;;;;5096478;28;19919;-84
2022/03/01 05:25:44;;;;;;;;;;;1.20;99.90;;;;;;5072629;28;19927;-84
2022/03/01 05:28:10;;;;;;;;;;;1.30;99.90;;;;;;5095898;28;19920;-84
2022/03/01 05:30:36;;;;;;;;;;;1.30;99.90;;;;;;5096074;28;20324;-84
2022/03/01 05:33:01;;;;;;;;;;;1.30;99.90;;;;;;5079202;28;19919;-84
2022/03/01 05:35:28;;;;;;;;;;;1.30;99.90;;;;;;5078895;28;19974;-84
2022/03/01 05:37:54;;;;;;;;;;;1.20;99.90;;;;;;5095371;28;19999;-84
2022/03/01 05:40:21;;;;;;;;;;;1.20;99.90;;;;;;5072538;28;20000;-84
2022/03/01 05:42:46;;;;;;;;;;;1.20;99.90;;;;;;5078853;28;19920;-85
2022/03/01 05:45:12;;;;;;;;;;;1.20;99.90;;;;;;5095650;28;19933;-84
2022/03/01 05:47:38;;;;;;;;;;;1.20;99.90;;;;;;5095263;28;19965;-84
2022/03/01 05:50:04;;;;;;;;;;;1.20;99.90;;;;;;5078820;28;19973;-84
2022/03/01 05:52:30;;;;;;;;;;;1.20;99.90;;;;;;5079277;28;19920;-84
2022/03/01 05:54:55;;;;;;;;;;;1.20;99.90;;;;;;5078898;28;19930;-84
2022/03/01 05:57:24;;;;;;;;;;;1.10;99.90;;;;;;5078382;28;19919;-85
2022/03/01 05:59:49;;;;;;;;;;;1.10;99.90;;;;;;5095707;28;19923;-84
2022/03/01 06:02:15;;;;;;;;;;;1.20;99.90;;;;;;5078848;28;19957;-84
2022/03/01 06:04:40;;;;;;;;;;;1.20;99.90;;;;;;5078747;28;19931;-84
2022/03/01 06:07:05;;;;;;;;;;;1.10;99.90;;;;;;5078180;28;19924;-85
2022/03/01 06:09:31;;;;;;;;;;;1.20;99.90;;;;;;5078255;28;19969;-84
2022/03/01 06:11:56;;;;;;;;;;;1.10;99.90;;;;;;5078542;28;19920;-84
2022/03/01 06:14:22;;;;;;;;;;;1.10;99.90;;;;;;5078394;28;19935;-85
2022/03/01 06:16:47;;;;;;;;;;;1.10;99.90;;;;;;5094959;28;19920;-84
2022/03/01 06:19:13;;;;;;;;;;;1.20;99.90;;;;;;5078356;28;19920;-84
2022/03/01 06:21:39;;;;;;;;;;;1.20;99.90;;;;;;5078708;28;20415;-84
2022/03/01 06:24:04;;;;;;;;;;;1.10;99.90;;;;;;5095193;28;19926;-85
2022/03/01 06:26:30;;;;;;;;;;;1.20;99.90;;;;;;5081985;28;20030;-84
2022/03/01 06:28:55;;;;;;;;;;;1.20;99.90;;;;;;5106996;27;19920;-84
2022/03/01 06:31:21;;;;;;;;;;;1.20;99.90;;;;;;5076022;28;20368;-84
2022/03/01 06:33:46;;;;;;;;;;;1.20;99.90;;;;;;5077609;28;19923;-85
2022/03/01 06:36:12;;;;;;;;;;;1.20;99.90;;;;;;5081967;28;20393;-84
2022/03/01 06:38:38;;;;;;;;;;;1.20;99.90;;;;;;5078382;28;20377;-84
2022/03/01 06:41:04;;;;;;;;;;;1.30;99.90;;;;;;5078294;28;20292;-84
2022/03/01 06:43:29;;;;;;;;;;;1.30;99.90;;;;;;5078038;28;19924;-84
2022/03/01 06:45:55;;;;;;;;;;;1.30;99.90;;;;;;5078075;28;20330;-84
2022/03/01 06:48:20;;;;;;;;;;;1.30;99.90;;;;;;5077434;28;19971;-85
2022/03/01 06:50:46;;;;;;;;;;;1.30;99.90;;;;;;5098480;28;19920;-84
2022/03/01 06:53:13;;;;;;;;;;;1.40;99.90;;;;;;5074121;28;19968;-84
2022/03/01 06:55:42;;;;;;;;;;;1.40;99.90;;;;;;5078620;28;19924;-86
2022/03/01 06:58:08;;;;;;;;;;;1.40;99.90;;;;;;5107938;28;19930;-83
2022/03/01 07:00:33;;;;;;;;;;;1.40;99.90;;;;;;5078977;28;19920;-86
2022/03/01 07:02:59;;;;;;;;;;;1.40;99.90;;;;;;5074192;28;20242;-88
2022/03/01 07:05:24;;;;;;;;;;;1.60;99.90;;;;;;5078073;28;19931;-88
2022/03/01 07:07:50;;;;;;;;;;;2.50;99.90;;;;;;5077492;28;19920;-87
2022/03/01 07:10:15;;;;;;;;;;;1.60;99.90;;;;;;5078115;28;19927;-87
2022/03/01 07:12:41;;;;;;;;;;;1.60;99.90;;;;;;5078431;28;19920;-88
2022/03/01 07:15:07;;;;;;;;;;;1.70;99.90;;;;;;5075803;28;19924;-86
2022/03/01 07:17:34;;;;;;;;;;;1.70;99.90;;;;;;5076254;28;20301;-85
2022/03/01 07:19:59;;;;;;;;;;;1.80;99.90;;;;;;5077802;28;19998;-85
2022/03/01 07:22:25;;;;;;;;;;;1.80;99.90;;;;;;5077787;28;20010;-85
2022/03/01 07:24:50;;;;;;;;;;;2.00;99.90;;;;;;5094490;28;19931;-85
2022/03/01 07:27:16;;;;;;;;;;;1.90;99.90;;;;;;5077080;28;19926;-87
2022/03/01 07:29:51;;;;;;;;;;;1.90;99.90;;;;;;5077921;28;19969;-85
2022/03/01 07:32:17;;;;;;;;;;;2.00;99.90;;;;;;5077715;28;19973;-85
2022/03/01 07:34:44;;;;;;;;;;;2.00;99.90;;;;;;5094612;28;20384;-81
2022/03/01 07:37:10;;;;;;;;;;;2.00;99.90;;;;;;5070695;28;19972;-82
2022/03/01 07:39:35;;;;;;;;;;;2.00;99.90;;;;;;5076774;28;19924;-84
2022/03/01 07:42:01;;;;;;;;;;;2.00;99.90;;;;;;5081763;27;20376;-86
2022/03/01 07:44:27;;;;;;;;;;;2.10;99.90;;;;;;5098539;28;19920;-84
2022/03/01 07:50:14;;;;;;;;;;;2.10;99.90;;;;;;5122167;27;19999;-85
2022/03/01 07:52:39;;;;;;;;;;;2.10;99.90;;;;;;5114434;27;20381;-84
2022/03/01 07:55:05;;;;;;;;;;;2.20;99.90;;;;;;5109063;27;19926;-84
2022/03/01 07:57:31;;;;;;;;;;;2.20;99.90;;;;;;5080394;28;20022;-84
2022/03/01 08:00:00;;;;;;;;;;;2.20;99.90;;;;;;5096773;28;20023;-85
2022/03/01 08:02:26;;;;;;;;;;;2.20;99.90;;;;;;5078509;28;19923;-85
2022/03/01 08:04:51;;;;;;;;;;;2.20;99.90;;;;;;5097153;28;19932;-85
2022/03/01 08:07:19;;;;;;;;;;;2.30;99.90;;;;;;5079016;28;19963;-85
2022/03/01 08:10:00;;;;;;;;;;;2.30;99.90;;;;;;5128079;27;20319;-84
2022/03/01 08:12:26;;;;;;;;;;;2.40;99.90;;;;;;5107311;27;20368;-85
2022/03/01 08:14:52;;;;;;;;;;;2.40;99.90;;;;;;5070625;28;19942;-86
2022/03/01 08:17:19;;;;;;;;;;;2.50;99.90;;;;;;5095072;28;19920;-84
2022/03/01 08:19:46;;;;;;;;;;;2.50;99.90;;;;;;5087209;28;20430;-85
2022/03/01 08:22:11;;;;;;;;;;;2.60;99.90;;;;;;5080219;28;20406;-85
2022/03/01 08:24:54;;;;;;;;;;;2.70;99.90;;;;;;5078807;27;19979;-85
2022/03/01 08:27:20;;;;;;;;;;;2.70;99.90;;;;;;5093623;28;20365;-84
2022/03/01 08:29:45;;;;;;;;;;;2.80;99.90;;;;;;5080183;28;19951;-85
2022/03/01 08:32:14;;;;;;;;;;;2.90;99.90;;;;;;5079918;28;19927;-85
2022/03/01 08:34:39;;;;;;;;;;;3.00;99.90;;;;;;5079696;28;19919;-86
2022/03/01 08:37:04;;;;;;;;;;;3.10;99.90;;;;;;5072610;28;20392;-87
2022/03/01 08:39:30;;;;;;;;;;;3.20;99.90;;;;;;5097085;28;20014;-89
2022/03/01 08:41:55;;;;;;;;;;;3.30;99.90;;;;;;5089651;27;19926;-87
2022/03/01 08:44:21;;;;;;;;;;;3.30;99.90;;;;;;5101329;27;19920;-87
2022/03/01 08:46:47;;;;;;;;;;;3.40;99.90;;;;;;5076966;28;19920;-87
2022/03/01 08:49:12;;;;;;;;;;;3.50;99.90;;;;;;5079381;28;19924;-86
2022/03/01 08:51:37;;;;;;;;;;;3.60;99.90;;;;;;5079868;28;19924;-86
2022/03/01 08:54:03;;;;;;;;;;;3.70;99.90;;;;;;5079048;28;20006;-87
2022/03/01 08:56:29;;;;;;;;;;;3.70;99.90;;;;;;5096493;28;19919;-87
2022/03/01 08:58:55;;;;;;;;;;;4.50;99.90;;;;;;5080129;28;19923;-86
2022/03/01 09:01:44;;;;;;;;;;;3.90;99.90;;;;;;5097162;28;19919;-85
2022/03/01 09:04:10;;;;;;;;;;;4.00;99.90;;;;;;5080240;28;20296;-85
2022/03/01 09:06:35;;;;;;;;;;;4.10;99.90;;;;;;5078842;28;19931;-83
2022/03/01 09:09:01;;;;;;;;;;;4.20;99.90;;;;;;5079635;28;19924;-81
2022/03/01 09:11:27;;;;;;;;;;;4.30;99.90;;;;;;5095858;28;19998;-81
2022/03/01 09:13:53;;;;;;;;;;;4.50;99.90;;;;;;5078998;28;19924;-81
2022/03/01 09:16:18;;;;;;;;;;;4.60;99.90;;;;;;5095540;28;19976;-83
2022/03/01 09:18:51;;;;;;;;;;;4.80;99.90;;;;;;5085300;28;19923;-82
2022/03/01 09:21:17;;;;;;;;;;;4.80;99.90;;;;;;5074807;28;20383;-81
2022/03/01 09:23:43;;;;;;;;;;;5.00;99.90;;;;;;5079547;28;20002;-85
2022/03/01 09:26:08;;;;;;;;;;;5.10;99.90;;;;;;5079312;28;19923;-87
2022/03/01 09:28:42;;;;;;;;;;;5.20;99.90;;;;;;5081369;28;20010;-86
2022/03/01 09:31:10;;;;;;;;;;;5.30;99.90;;;;;;5102892;28;19924;-87
2022/03/01 09:33:42;;;;;;;;;;;5.70;99.90;;;;;;5079221;28;19920;-86
2022/03/01 09:36:08;;;;;;;;;;;5.30;99.90;;;;;;5078948;28;19926;-86
2022/03/01 09:38:34;;;;;;;;;;;5.30;99.90;;;;;;5078887;28;19980;-86
2022/03/01 09:41:08;;;;;;;;;;;5.30;99.90;;;;;;5078737;28;20420;-87
2022/03/01 09:43:37;;;;;;;;;;;5.30;99.90;;;;;;5079090;28;19923;-87
2022/03/01 09:46:03;;;;;;;;;;;5.30;99.90;;;;;;5071889;28;19932;-87
2022/03/01 09:48:29;;;;;;;;;;;5.40;99.90;;;;;;5089243;28;19920;-86
2022/03/01 09:50:54;;;;;;;;;;;5.40;99.90;;;;;;5078137;28;19923;-86
2022/03/01 09:53:20;;;;;;;;;;;5.50;99.90;;;;;;5072046;28;19920;-86
2022/03/01 09:55:45;;;;;;;;;;;5.50;99.90;;;;;;5083559;28;20010;-86
2022/03/01 09:58:12;;;;;;;;;;;5.60;99.90;;;;;;5081920;28;19920;-87
2022/03/01 10:00:37;;;;;;;;;;;5.70;99.90;;;;;;5085598;27;19919;-85
2022/03/01 10:03:32;;;;;;;;;;;5.70;99.90;;;;;;5101728;27;19931;-85
2022/03/01 10:06:11;;;;;;;;;;;5.80;99.90;;;;;;5078492;28;19924;-84
2022/03/01 10:08:37;;;;;;;;;;;6.00;99.90;;;;;;5078737;28;19920;-86
2022/03/01 10:11:03;;;;;;;;;;;6.10;99.90;;;;;;5078373;28;19920;-84
2022/03/01 10:13:30;;;;;;;;;;;6.30;99.90;;;;;;5095166;28;20057;-84
2022/03/01 10:16:06;;;;;;;;;;;6.40;99.90;;;;;;5079371;27;20345;-84
2022/03/01 10:18:33;;;;;;;;;;;6.40;99.90;;;;;;5077269;28;19919;-87
2022/03/01 10:21:06;;;;;;;;;;;6.60;99.90;;;;;;5083299;28;19927;-85
2022/03/01 10:23:32;;;;;;;;;;;6.80;99.90;;;;;;5094823;28;19924;-86
2022/03/01 10:26:09;;;;;;;;;;;6.90;99.90;;;;;;5078041;28;20289;-85
2022/03/01 10:28:36;;;;;;;;;;;7.20;99.90;;;;;;5078078;28;19927;-87
2022/03/01 10:31:09;;;;;;;;;;;7.30;99.90;;;;;;5078130;28;20273;-87
2022/03/01 10:33:35;;;;;;;;;;;7.50;99.90;;;;;;5074948;28;20269;-87
2022/03/01 10:36:00;;;;;;;;;;;7.50;99.90;;;;;;5077227;28;19927;-85
2022/03/01 10:38:28;;;;;;;;;;;7.80;99.90;;;;;;5076273;28;19920;-85
2022/03/01 10:40:57;;;;;;;;;;;7.60;99.90;;;;;;5096937;28;19976;-86
2022/03/01 10:43:24;;;;;;;;;;;7.60;99.90;;;;;;5100658;28;19967;-86
2022/03/01 10:45:51;;;;;;;;;;;7.60;99.90;;;;;;5083781;28;20017;-85
2022/03/01 10:48:27;;;;;;;;;;;7.60;99.90;;;;;;5105727;28;20001;-84
2022/03/01 10:51:19;;;;;;;;;;;7.60;99.90;;;;;;5098095;28;19959;-85
2022/03/01 10:53:45;;;;;;;;;;;7.50;99.90;;;;;;5088195;28;19924;-85
2022/03/01 10:56:13;;;;;;;;;;;7.50;99.90;;;;;;5077362;28;19920;-83
2022/03/01 10:58:39;;;;;;;;;;;7.60;99.90;;;;;;5075212;28;20323;-83
2022/03/01 11:01:06;;;;;;;;;;;7.50;99.90;;;;;;5080578;28;19919;-83
2022/03/01 11:03:31;;;;;;;;;;;7.50;99.90;;;;;;5076540;28;20029;-84
2022/03/01 11:06:00;;;;;;;;;;;7.60;99.90;;;;;;5091234;28;20290;-84
2022/03/01 11:08:36;;;;;;;;;;;7.50;99.90;;;;;;5078612;28;19931;-86
2022/03/01 11:11:22;;;;;;;;;;;7.60;99.90;;;;;;5087303;28;20015;-86
2022/03/01 11:13:47;;;;;;;;;;;7.60;99.90;;;;;;5079729;28;20565;-85
2022/03/01 11:16:13;;;;;;;;;;;7.70;99.90;;;;;;5092239;28;20011;-86
2022/03/01 11:19:01;;;;;;;;;;;7.80;99.90;;;;;;5071955;28;19926;-85
2022/03/01 11:21:27;;;;;;;;;;;7.90;99.90;;;;;;5042411;28;20361;-85
2022/03/01 11:23:53;;;;;;;;;;;8.00;99.90;;;;;;5082029;28;19972;-85
2022/03/01 11:29:14;;;;;;;;;;;8.10;99.90;;;;;;5121498;27;19920;-85
2022/03/01 11:31:41;;;;;;;;;;;8.10;99.90;;;;;;5076934;28;20292;-86
2022/03/01 11:34:07;;;;;;;;;;;8.30;99.90;;;;;;5081124;28;19927;-85
2022/03/01 11:36:33;;;;;;;;;;;8.50;99.90;;;;;;5081666;28;19920;-85
2022/03/01 11:39:09;;;;;;;;;;;8.60;99.90;;;;;;5098476;28;19970;-85
2022/03/01 11:41:45;;;;;;;;;;;8.60;99.90;;;;;;5081416;28;19972;-85
2022/03/01 11:44:11;;;;;;;;;;;8.60;99.90;;;;;;5097293;28;19984;-85
2022/03/01 11:46:39;;;;;;;;;;;8.60;99.90;;;;;;5085192;28;19924;-85
2022/03/01 11:49:05;;;;;;;;;;;8.60;99.90;;;;;;5097429;28;19934;-85
2022/03/01 11:51:35;;;;;;;;;;;8.50;99.90;;;;;;5081045;27;19931;-85
2022/03/01 11:54:01;;;;;;;;;;;8.50;99.90;;;;;;5103867;27;19967;-85
2022/03/01 11:56:30;;;;;;;;;;;8.50;99.90;;;;;;5098692;28;19920;-85
2022/03/01 11:59:02;;;;;;;;;;;8.40;99.90;;;;;;5081009;28;20292;-85
2022/03/01 12:04:46;;;;;;;;;;;8.30;99.90;;;;;;5125530;27;20277;-85
2022/03/01 12:07:14;;;;;;;;;;;8.30;99.90;;;;;;5093175;28;19928;-85
2022/03/01 12:10:00;;;;;;;;;;;8.20;99.90;;;;;;5068828;28;19920;-85
2022/03/01 12:12:52;;;;;;;;;;;8.20;99.90;;;;;;5106986;27;19945;-85
2022/03/01 12:15:32;;;;;;;;;;;8.20;99.90;;;;;;5103791;28;19924;-85
2022/03/01 12:18:09;;;;;;;;;;;8.10;99.90;;;;;;5072010;28;20018;-86
2022/03/01 12:20:34;;;;;;;;;;;8.10;99.90;;;;;;5075456;28;20365;-86
2022/03/01 12:23:03;;;;;;;;;;;8.50;99.90;;;;;;5083618;28;19926;-85
2022/03/01 12:25:32;;;;;;;;;;;8.10;99.90;;;;;;5080981;28;19928;-85
2022/03/01 12:28:00;;;;;;;;;;;8.00;99.90;;;;;;5090627;28;20006;-85
2022/03/01 12:30:25;;;;;;;;;;;8.00;99.90;;;;;;5107793;28;19950;-87
2022/03/01 12:32:52;;;;;;;;;;;8.00;99.90;;;;;;5086045;28;19928;-89
2022/03/01 12:35:18;;;;;;;;;;;8.00;99.90;;;;;;5074067;28;19931;-87
2022/03/01 12:37:43;;;;;;;;;;;7.90;99.90;;;;;;5096983;28;20373;-89
2022/03/01 12:40:09;;;;;;;;;;;8.80;99.90;;;;;;5076464;28;19945;-86
2022/03/01 12:42:35;;;;;;;;;;;7.80;99.90;;;;;;5086473;27;19920;-85
2022/03/01 12:45:13;;;;;;;;;;;7.80;99.90;;;;;;5074312;28;19964;-86
2022/03/01 12:47:41;;;;;;;;;;;7.80;99.90;;;;;;5080207;28;19981;-86
2022/03/01 12:50:15;;;;;;;;;;;7.80;99.90;;;;;;5079542;28;19945;-85
2022/03/01 12:52:51;;;;;;;;;;;7.90;99.90;;;;;;5109144;28;20387;-85
2022/03/01 12:55:17;;;;;;;;;;;7.90;99.90;;;;;;5096477;28;19974;-84
2022/03/01 12:57:44;;;;;;;;;;;7.90;99.90;;;;;;5096106;28;19919;-85
2022/03/01 13:00:10;;;;;;;;;;;8.00;99.90;;;;;;5112318;27;19924;-85
2022/03/01 13:02:35;;;;;;;;;;;9.00;99.90;;;;;;5097427;28;19920;-81
2022/03/01 13:05:03;;;;;;;;;;;8.10;99.90;;;;;;5081906;27;19923;-82
2022/03/01 13:07:32;;;;;;;;;;;8.20;99.90;;;;;;5079253;28;20349;-82
2022/03/01 13:10:02;;;;;;;;;;;8.20;99.90;;;;;;5096677;28;19927;-82
2022/03/01 13:12:27;;;;;;;;;;;8.20;99.90;;;;;;5079873;28;19930;-81
2022/03/01 13:14:58;;;;;;;;;;;8.30;99.90;;;;;;5096226;28;20014;-81
2022/03/01 13:17:24;;;;;;;;;;;8.30;99.90;;;;;;5078809;28;19924;-82
2022/03/01 13:19:49;;;;;;;;;;;8.30;99.90;;;;;;5094382;28;19927;-85
2022/03/01 13:22:15;;;;;;;;;;;8.30;99.90;;;;;;5095746;28;20094;-85
2022/03/01 13:24:46;;;;;;;;;;;8.30;99.90;;;;;;5076730;27;19935;-85
2022/03/01 13:27:13;;;;;;;;;;;8.30;99.90;;;;;;5082622;28;19920;-84
2022/03/01 13:29:40;;;;;;;;;;;8.20;99.90;;;;;;5079118;28;19981;-86
2022/03/01 13:32:16;;;;;;;;;;;8.20;99.90;;;;;;5078885;28;19927;-86
2022/03/01 13:34:44;;;;;;;;;;;8.20;99.90;;;;;;5069339;28;19919;-86
2022/03/01 13:37:11;;;;;;;;;;;8.20;99.90;;;;;;5078718;28;20300;-85
2022/03/01 13:39:37;;;;;;;;;;;8.10;99.90;;;;;;5078955;28;20035;-85
2022/03/01 13:42:04;;;;;;;;;;;8.10;99.90;;;;;;5078550;28;19919;-86
2022/03/01 13:44:33;;;;;;;;;;;8.10;99.90;;;;;;5069151;28;19920;-85
2022/03/01 13:47:09;;;;;;;;;;;8.20;99.90;;;;;;5075391;28;19920;-85
2022/03/01 13:49:42;;;;;;;;;;;8.20;99.90;;;;;;5079272;28;19958;-85
2022/03/01 13:52:15;;;;;;;;;;;8.20;99.90;;;;;;5090778;28;19920;-86
2022/03/01 13:54:52;;;;;;;;;;;8.20;99.90;;;;;;5077940;28;20329;-84
2022/03/01 13:57:22;;;;;;;;;;;8.20;99.90;;;;;;5078424;28;19920;-84
2022/03/01 13:59:55;;;;;;;;;;;8.20;99.90;;;;;;5078096;28;19973;-85
2022/03/01 14:02:23;;;;;;;;;;;8.20;99.90;;;;;;5078178;28;20404;-84
2022/03/01 14:04:59;;;;;;;;;;;8.20;99.90;;;;;;5069368;27;20392;-84
2022/03/01 14:07:25;;;;;;;;;;;8.20;99.90;;;;;;5077874;28;19954;-84
2022/03/01 14:09:52;;;;;;;;;;;8.20;99.90;;;;;;5080864;28;20369;-84
2022/03/01 14:12:17;;;;;;;;;;;8.30;99.90;;;;;;5084314;28;19919;-85
2022/03/01 14:14:51;;;;;;;;;;;8.30;99.90;;;;;;5093545;28;19973;-85
2022/03/01 14:17:22;;;;;;;;;;;8.40;99.90;;;;;;5073873;28;19989;-84
2022/03/01 14:19:52;;;;;;;;;;;8.40;99.90;;;;;;5096402;27;19920;-85
2022/03/01 14:22:25;;;;;;;;;;;8.50;99.90;;;;;;5098653;28;19919;-86
2022/03/01 14:24:51;;;;;;;;;;;8.50;99.90;;;;;;5070989;28;19972;-86
2022/03/01 14:27:18;;;;;;;;;;;8.60;99.90;;;;;;5078852;28;20635;-85
2022/03/01 14:29:44;;;;;;;;;;;8.70;99.90;;;;;;5073771;27;19924;-84
2022/03/01 14:32:10;;;;;;;;;;;8.70;99.90;;;;;;5098325;28;19969;-85
2022/03/01 14:34:35;;;;;;;;;;;8.70;99.90;;;;;;5078283;28;19919;-87
2022/03/01 14:37:01;;;;;;;;;;;8.70;99.90;;;;;;5070808;28;19920;-88
2022/03/01 14:39:26;;;;;;;;;;;8.60;99.90;;;;;;5078346;28;19924;-87
2022/03/01 14:41:52;;;;;;;;;;;8.60;99.90;;;;;;5077818;28;19920;-88